Time;durP1;ratioP1;P1;durP2;ratioP2;P2;SDS_P1;SDS_P2;PMS_P1;PMS_P2;Temp;Humidity;BMP_temperature;BMP_pressure;BME280_temperature;BME280_humidity;BME280_pressure;Samples;Min_cycle;Max_cycle;Signal;HPM_P1;HPM_P2
2024/01/18 00:02:31;;;;;;;7.40;6.70;;;;;;;20.64;28.84;94400.63;6151674;28;109030;-54
2024/01/18 00:05:34;;;;;;;8.50;7.57;;;;;;;20.64;28.94;94397.97;6157955;28;109092;-53
2024/01/18 00:08:39;;;;;;;8.63;7.83;;;;;;;20.60;28.57;94395.16;6158530;28;109124;-53
2024/01/18 00:11:42;;;;;;;8.77;7.87;;;;;;;20.53;28.80;94397.50;6158091;28;109191;-53
2024/01/18 00:14:45;;;;;;;8.27;7.17;;;;;;;20.63;28.82;94391.09;6147862;28;110933;-53
2024/01/18 00:17:48;;;;;;;7.97;7.03;;;;;;;20.61;28.74;94379.97;6157881;28;109260;-53
2024/01/18 00:20:51;;;;;;;8.03;7.33;;;;;;;20.59;28.62;94367.00;6157211;28;109236;-53
2024/01/18 00:23:55;;;;;;;8.00;7.30;;;;;;;20.62;28.62;94365.59;6153319;28;109483;-52
2024/01/18 00:27:00;;;;;;;7.23;6.53;;;;;;;20.64;28.70;94363.41;6152807;28;109133;-53
2024/01/18 00:30:04;;;;;;;8.30;7.53;;;;;;;20.66;28.64;94373.72;6158613;28;109059;-53
2024/01/18 00:33:07;;;;;;;8.17;7.37;;;;;;;20.68;28.57;94390.16;6157944;28;110029;-53
2024/01/18 00:36:10;;;;;;;7.40;6.70;;;;;;;20.53;28.60;94352.31;6147010;28;109135;-53
2024/01/18 00:39:18;;;;;;;7.70;7.00;;;;;;;20.63;28.76;94399.06;6158239;28;110105;-53
2024/01/18 00:42:22;;;;;;;7.93;7.23;;;;;;;20.64;28.31;94371.38;6154698;28;110916;-53
2024/01/18 00:45:25;;;;;;;7.37;6.67;;;;;;;20.69;28.70;94373.91;6157229;28;109466;-53
2024/01/18 00:48:28;;;;;;;7.97;7.27;;;;;;;20.71;28.79;94368.28;6148879;28;110135;-54
2024/01/18 00:51:31;;;;;;;7.50;6.80;;;;;;;20.73;28.79;94344.81;6157374;28;109172;-53
2024/01/18 00:54:35;;;;;;;7.87;7.07;;;;;;;20.72;28.98;94361.84;6157223;28;110282;-53
2024/01/18 00:57:39;;;;;;;7.53;6.83;;;;;;;20.71;29.00;94361.06;6154423;28;109924;-53
2024/01/18 01:00:42;;;;;;;8.03;7.23;;;;;;;20.72;29.19;94345.91;6150789;28;109328;-52
2024/01/18 01:03:45;;;;;;;7.73;6.83;;;;;;;20.71;29.09;94355.75;6158063;28;110466;-53
2024/01/18 01:06:48;;;;;;;7.97;7.20;;;;;;;20.71;28.94;94373.59;6156958;28;109150;-53
2024/01/18 01:09:52;;;;;;;8.03;7.23;;;;;;;20.70;29.23;94338.25;6148098;28;109292;-53
2024/01/18 01:12:55;;;;;;;7.03;6.33;;;;;;;20.70;29.27;94324.94;6157306;28;109780;-53
2024/01/18 01:15:59;;;;;;;8.43;7.00;;;;;;;20.71;29.31;94347.78;6155701;28;109294;-53
2024/01/18 01:19:02;;;;;;;7.67;6.87;;;;;;;20.71;29.32;94323.06;6157709;28;109220;-53
2024/01/18 01:22:05;;;;;;;7.13;6.43;;;;;;;20.71;29.23;94323.06;6149215;28;109598;-53
2024/01/18 01:25:10;;;;;;;7.90;7.10;;;;;;;20.69;29.08;94311.97;6157651;28;109131;-53
2024/01/18 01:28:13;;;;;;;7.63;6.90;;;;;;;20.69;29.06;94336.69;6157178;28;109224;-53
2024/01/18 01:31:16;;;;;;;8.10;7.30;;;;;;;20.68;29.04;94252.72;6157155;28;109207;-56
2024/01/18 01:34:19;;;;;;;7.53;6.83;;;;;;;20.68;28.97;94286.50;6145182;28;110284;-55
2024/01/18 01:37:23;;;;;;;6.93;6.33;;;;;;;20.67;29.36;94267.09;6156350;28;109101;-56
2024/01/18 01:40:27;;;;;;;7.27;6.67;;;;;;;20.66;29.37;94273.47;6156827;28;109279;-56
2024/01/18 01:43:31;;;;;;;7.83;7.03;;;;;;;20.67;29.28;94276.91;6152261;28;110206;-56
2024/01/18 01:46:35;;;;;;;7.60;6.90;;;;;;;20.66;29.25;94280.69;6151598;28;110268;-56
2024/01/18 01:49:38;;;;;;;7.40;6.70;;;;;;;20.67;29.15;94287.56;6156960;28;109334;-56
2024/01/18 01:52:43;;;;;;;8.40;6.80;;;;;;;20.66;29.23;94296.63;6158147;28;109423;-57
2024/01/18 01:55:47;;;;;;;7.27;6.67;;;;;;;20.66;29.19;94272.69;6150348;28;109917;-56
2024/01/18 01:58:51;;;;;;;8.03;7.23;;;;;;;20.63;29.21;94244.88;6161811;28;109239;-56
2024/01/18 02:01:54;;;;;;;7.77;6.97;;;;;;;20.64;29.48;94262.38;6161158;28;108847;-57
2024/01/18 02:04:58;;;;;;;7.23;6.53;;;;;;;20.63;29.46;94258.94;6160997;28;110273;-56
2024/01/18 02:08:01;;;;;;;7.20;6.50;;;;;;;20.64;29.40;94246.44;6149825;28;110081;-57
2024/01/18 02:11:07;;;;;;;7.30;6.60;;;;;;;20.65;29.38;94263.16;6159423;28;108737;-56
2024/01/18 02:14:10;;;;;;;6.93;5.80;;;;;;;20.59;29.12;94267.88;6160475;28;109755;-56
2024/01/18 02:17:13;;;;;;;7.87;7.10;;;;;;;20.66;29.05;94249.56;6155888;28;110262;-56
2024/01/18 02:20:16;;;;;;;6.37;5.77;;;;;;;20.66;29.31;94268.16;6154289;28;110914;-56
2024/01/18 02:23:20;;;;;;;6.73;6.13;;;;;;;20.66;29.19;94249.56;6159575;28;109555;-56
2024/01/18 02:26:25;;;;;;;7.07;6.37;;;;;;;20.67;29.22;94253.81;6160961;28;109094;-57
2024/01/18 02:29:28;;;;;;;7.87;7.07;;;;;;;20.66;29.02;94244.25;6150671;28;109566;-56
2024/01/18 02:32:31;;;;;;;6.17;5.60;;;;;;;20.66;29.22;94265.50;6160398;28;110449;-56
2024/01/18 02:35:34;;;;;;;6.97;6.27;;;;;;;20.64;29.16;94227.84;6160070;28;110252;-56
2024/01/18 02:38:37;;;;;;;6.90;6.30;;;;;;;20.63;29.09;94250.19;6160467;28;110380;-56
2024/01/18 02:41:42;;;;;;;6.37;5.77;;;;;;;20.58;29.37;94229.09;6149146;28;110173;-53
2024/01/18 02:44:45;;;;;;;6.57;5.97;;;;;;;20.62;29.21;94230.03;6157392;28;110302;-52
2024/01/18 02:47:48;;;;;;;6.80;6.10;;;;;;;20.61;29.10;94247.06;6136556;28;110136;-52
2024/01/18 02:50:51;;;;;;;7.13;5.90;;;;;;;20.57;29.50;94211.59;6147773;28;109151;-52
2024/01/18 02:53:54;;;;;;;6.77;6.17;;;;;;;20.60;29.19;94211.75;6149610;28;109242;-52
2024/01/18 02:56:59;;;;;;;5.83;5.30;;;;;;;20.61;29.28;94231.13;6160526;28;110029;-52
2024/01/18 03:00:02;;;;;;;6.60;6.00;;;;;;;20.61;29.30;94209.84;6157921;28;108967;-52
2024/01/18 03:03:06;;;;;;;7.23;6.63;;;;;;;20.60;29.39;94209.09;6154990;28;109051;-53
2024/01/18 03:06:09;;;;;;;6.90;6.20;;;;;;;20.61;29.19;94231.91;6155093;28;109286;-52
2024/01/18 03:09:12;;;;;;;6.50;5.90;;;;;;;20.63;29.08;94223.63;6159621;28;109248;-53
2024/01/18 03:12:17;;;;;;;6.57;6.00;;;;;;;20.63;29.21;94203.13;6159567;28;109156;-52
2024/01/18 03:15:20;;;;;;;6.77;6.17;;;;;;;20.63;29.41;94228.94;6149101;28;110217;-52
2024/01/18 03:18:23;;;;;;;6.70;6.03;;;;;;;20.62;29.05;94230.03;6159850;28;110269;-52
2024/01/18 03:21:26;;;;;;;6.20;5.63;;;;;;;20.61;29.41;94209.84;6157945;28;109192;-52
2024/01/18 03:24:29;;;;;;;7.13;6.43;;;;;;;20.61;29.21;94212.53;6159555;28;109426;-52
2024/01/18 03:27:34;;;;;;;7.00;5.90;;;;;;;20.59;29.48;94225.34;6148136;28;109144;-52
2024/01/18 03:30:37;;;;;;;6.57;5.97;;;;;;;20.59;29.30;94220.03;6158932;28;108832;-52
2024/01/18 03:33:40;;;;;;;6.63;6.03;;;;;;;20.59;29.30;94228.78;6159668;28;109158;-52
2024/01/18 03:36:43;;;;;;;6.77;6.17;;;;;;;20.57;29.30;94220.34;6154930;28;110062;-53
2024/01/18 03:39:47;;;;;;;7.00;6.40;;;;;;;20.58;29.21;94247.72;6151736;28;109504;-52
2024/01/18 03:42:51;;;;;;;6.40;5.80;;;;;;;20.57;29.22;94208.94;6159432;28;109102;-53
2024/01/18 03:45:54;;;;;;;7.03;6.33;;;;;;;20.58;29.25;94237.06;6159049;28;109044;-53
2024/01/18 03:48:57;;;;;;;6.70;6.10;;;;;;;20.55;29.08;94195.19;6149079;28;109286;-53
2024/01/18 03:52:00;;;;;;;7.63;6.97;;;;;;;20.58;29.20;94216.59;6158378;28;110290;-53
2024/01/18 03:55:05;;;;;;;7.43;6.73;;;;;;;20.57;28.98;94216.91;6159404;28;110090;-53
2024/01/18 03:58:09;;;;;;;6.90;6.30;;;;;;;20.57;29.32;94198.31;6158304;28;110124;-54
2024/01/18 04:01:13;;;;;;;7.37;6.43;;;;;;;20.58;29.35;94210.50;6147838;28;110327;-53
2024/01/18 04:04:16;;;;;;;7.37;6.40;;;;;;;20.60;29.16;94198.44;6157297;28;109067;-54
2024/01/18 04:07:19;;;;;;;7.60;6.90;;;;;;;20.64;29.35;94206.56;6156958;28;110354;-53
2024/01/18 04:10:22;;;;;;;6.17;5.67;;;;;;;20.82;29.13;94210.75;6157851;28;110465;-51
2024/01/18 04:13:26;;;;;;;6.67;6.07;;;;;;;21.13;28.62;94217.72;6147768;28;108986;-51
2024/01/18 04:16:31;;;;;;;6.40;5.73;;;;;;;21.26;28.26;94210.63;6156683;28;108859;-50
2024/01/18 04:19:34;;;;;;;7.03;6.33;;;;;;;21.25;28.71;94196.53;6156713;28;110300;-50
2024/01/18 04:22:38;;;;;;;6.63;6.00;;;;;;;21.33;28.60;94209.00;6153815;28;110394;-51
2024/01/18 04:25:41;;;;;;;8.10;7.33;;;;;;;21.14;28.75;94200.63;6152909;28;109156;-52
2024/01/18 04:28:45;;;;;;;7.20;6.50;;;;;;;21.00;29.54;94226.63;6158315;28;110111;-53
2024/01/18 04:31:49;;;;;;;7.83;7.03;;;;;;;20.98;29.75;94239.47;6158785;28;109598;-53
2024/01/18 04:34:52;;;;;;;8.03;7.33;;;;;;;20.96;29.79;94237.13;6146399;28;110501;-53
2024/01/18 04:37:55;;;;;;;10.53;7.30;;;;;;;20.91;29.92;94248.75;6156764;28;109130;-52
2024/01/18 04:40:58;;;;;;;7.27;6.57;;;;;;;20.89;30.40;94242.97;6152745;28;110032;-53
2024/01/18 04:44:02;;;;;;;8.00;7.30;;;;;;;20.85;30.46;94220.75;6159348;28;109953;-54
2024/01/18 04:47:06;;;;;;;8.30;7.23;;;;;;;20.77;30.43;94242.03;6138643;28;109786;-53
2024/01/18 04:50:09;;;;;;;7.40;6.73;;;;;;;20.84;30.67;94202.47;6158774;28;112235;-60
2024/01/18 04:53:14;;;;;;;8.90;8.07;;;;;;;20.55;30.21;94140.16;6158540;28;108932;-53
2024/01/18 04:56:17;;;;;;;10.93;7.70;;;;;;;20.81;30.81;94203.84;6150709;28;109227;-55
2024/01/18 04:59:22;;;;;;;8.50;7.60;;;;;;;20.78;31.33;94207.16;6151503;28;110178;-54
2024/01/18 05:02:25;;;;;;;8.67;7.83;;;;;;;20.78;31.31;94207.16;6158025;28;109912;-54
2024/01/18 05:05:28;;;;;;;7.70;7.00;;;;;;;20.89;31.16;94232.31;6157558;28;109126;-54
2024/01/18 05:08:31;;;;;;;10.40;8.30;;;;;;;20.89;31.12;94204.94;6146924;28;108805;-53
2024/01/18 05:11:34;;;;;;;10.70;9.60;;;;;;;20.56;31.19;94229.41;6156826;28;110293;-54
2024/01/18 05:14:38;;;;;;;11.53;8.60;;;;;;;20.73;31.30;94180.75;6155581;28;109375;-54
2024/01/18 05:17:43;;;;;;;10.67;8.33;;;;;;;20.73;31.22;94228.59;6156627;28;109169;-53
2024/01/18 05:20:48;;;;;;;8.90;7.40;;;;;;;20.74;30.83;94210.78;6146727;28;109242;-53
2024/01/18 05:23:51;;;;;;;14.23;7.60;;;;;;;20.68;30.86;94226.13;6157853;28;110143;-54
2024/01/18 05:26:54;;;;;;;7.93;7.13;;;;;;;20.68;30.69;94212.84;6159145;28;110355;-54
2024/01/18 05:29:58;;;;;;;9.33;7.03;;;;;;;20.66;30.73;94224.84;6165617;28;109397;-55
2024/01/18 05:33:02;;;;;;;8.67;7.73;;;;;;;20.65;30.78;94226.72;6155114;28;110137;-54
2024/01/18 05:36:06;;;;;;;8.13;7.33;;;;;;;20.65;30.54;94234.72;6165975;28;109975;-54
2024/01/18 05:39:09;;;;;;;7.83;7.00;;;;;;;20.62;30.73;94240.66;6165929;28;109056;-55
2024/01/18 05:42:12;;;;;;;8.70;7.67;;;;;;;20.65;30.59;94225.94;6159085;28;109811;-55
2024/01/18 05:45:17;;;;;;;7.87;6.73;;;;;;;20.66;30.66;94233.59;6162127;28;110351;-55
2024/01/18 05:48:20;;;;;;;8.53;6.47;;;;;;;20.66;30.46;94233.59;6166048;28;110470;-55
2024/01/18 05:51:24;;;;;;;9.57;7.47;;;;;;;20.61;30.51;94215.97;6164887;28;109058;-55
2024/01/18 05:54:27;;;;;;;7.30;6.60;;;;;;;20.67;30.35;94223.75;6154738;28;109076;-55
2024/01/18 05:57:30;;;;;;;7.87;6.50;;;;;;;20.68;30.41;94220.81;6165650;28;109226;-55
2024/01/18 06:00:35;;;;;;;8.20;7.10;;;;;;;20.74;30.22;94245.34;6164965;28;109040;-56
2024/01/18 06:03:38;;;;;;;8.50;6.80;;;;;;;20.72;30.28;94229.72;6166101;28;110228;-54
2024/01/18 06:06:41;;;;;;;6.77;6.17;;;;;;;20.74;30.27;94250.66;6154909;28;109162;-54
2024/01/18 06:09:44;;;;;;;8.23;7.43;;;;;;;20.72;30.52;94224.38;6165485;28;109065;-55
2024/01/18 06:12:47;;;;;;;6.67;6.07;;;;;;;20.73;30.29;94244.56;6164331;28;109094;-56
2024/01/18 06:15:52;;;;;;;7.30;6.63;;;;;;;20.71;30.38;94236.13;6160339;28;109116;-56
2024/01/18 06:18:55;;;;;;;6.80;6.10;;;;;;;20.72;30.06;94252.84;6159314;28;110208;-56
2024/01/18 06:21:58;;;;;;;8.07;6.87;;;;;;;20.71;30.20;94236.13;6164683;28;109214;-56
2024/01/18 06:25:01;;;;;;;7.73;6.90;;;;;;;20.72;30.13;94248.31;6165404;28;110578;-56
2024/01/18 06:28:05;;;;;;;8.10;6.53;;;;;;;20.72;30.07;94242.22;6154651;28;109193;-56
2024/01/18 06:31:09;;;;;;;7.60;6.80;;;;;;;20.70;29.90;94244.41;6164513;28;110157;-56
2024/01/18 06:34:12;;;;;;;7.40;6.80;;;;;;;20.69;30.09;94243.63;6165310;28;109600;-55
2024/01/18 06:37:15;;;;;;;7.37;6.67;;;;;;;20.66;30.19;94254.09;6165018;28;110010;-55
2024/01/18 06:40:18;;;;;;;6.93;6.30;;;;;;;20.63;30.09;94245.66;6149601;28;110238;-56
2024/01/18 06:43:21;;;;;;;7.53;6.30;;;;;;;20.58;30.46;94239.72;6160733;28;109024;-55
2024/01/18 06:46:26;;;;;;;8.77;6.70;;;;;;;20.55;30.46;94232.41;6160820;28;109442;-56
2024/01/18 06:49:29;;;;;;;6.97;6.27;;;;;;;20.51;30.39;94221.63;6161155;28;109116;-55
2024/01/18 06:52:32;;;;;;;7.50;6.60;;;;;;;20.48;30.41;94213.47;6149487;28;109479;-56
2024/01/18 06:55:35;;;;;;;7.07;6.37;;;;;;;20.46;30.38;94234.28;6160671;28;109006;-56
2024/01/18 06:58:38;;;;;;;8.00;6.90;;;;;;;20.42;30.53;94214.75;6160881;28;109094;-55
2024/01/18 07:01:42;;;;;;;7.40;6.70;;;;;;;20.39;30.43;94220.69;6154328;28;109455;-58
2024/01/18 07:04:46;;;;;;;7.53;6.83;;;;;;;20.36;30.47;94216.00;6155887;28;109129;-56
2024/01/18 07:07:49;;;;;;;6.80;6.20;;;;;;;20.34;30.60;94226.19;6160826;28;110257;-56
2024/01/18 07:10:52;;;;;;;7.43;6.67;;;;;;;20.31;30.50;94222.25;6159709;28;110086;-56
2024/01/18 07:13:55;;;;;;;7.90;7.10;;;;;;;20.26;30.44;94183.34;6149853;28;110955;-56
2024/01/18 07:17:00;;;;;;;7.80;7.07;;;;;;;20.24;30.48;94182.88;6160158;28;110373;-55
2024/01/18 07:20:04;;;;;;;7.63;6.87;;;;;;;20.24;30.39;94185.53;6160252;28;109091;-57
2024/01/18 07:23:07;;;;;;;7.77;6.97;;;;;;;20.21;30.44;94167.56;6159985;28;109024;-55
2024/01/18 07:26:10;;;;;;;7.80;7.00;;;;;;;20.19;30.40;94148.50;6149366;28;110286;-56
2024/01/18 07:29:13;;;;;;;8.00;7.27;;;;;;;20.18;30.53;94138.19;6159895;28;109679;-55
2024/01/18 07:32:18;;;;;;;7.77;7.07;;;;;;;20.23;30.38;94133.47;6159953;28;110189;-56
2024/01/18 07:35:21;;;;;;;7.10;6.40;;;;;;;20.28;30.17;94109.44;6155801;28;110303;-56
2024/01/18 07:38:24;;;;;;;7.33;6.63;;;;;;;20.28;30.15;94100.69;6154435;28;109188;-55
2024/01/18 07:41:27;;;;;;;6.50;5.90;;;;;;;20.25;30.51;94091.47;6146134;28;110374;-54
2024/01/18 07:44:30;;;;;;;7.20;6.60;;;;;;;20.22;30.59;94070.81;6159496;28;109084;-56
2024/01/18 07:47:35;;;;;;;7.13;6.20;;;;;;;20.21;30.56;94057.88;6149205;28;109142;-55
2024/01/18 07:50:38;;;;;;;7.97;6.57;;;;;;;20.18;30.69;94043.34;6158205;28;109958;-56
2024/01/18 07:53:41;;;;;;;7.60;6.83;;;;;;;20.15;30.49;94043.94;6159730;28;109242;-56
2024/01/18 07:56:44;;;;;;;6.10;5.60;;;;;;;20.09;30.89;94045.22;6159536;28;109094;-56
2024/01/18 07:59:47;;;;;;;7.53;6.83;;;;;;;20.04;30.86;94032.13;6149403;28;110089;-55
2024/01/18 08:02:51;;;;;;;7.10;6.40;;;;;;;20.01;30.86;94036.22;6158913;28;109231;-56
2024/01/18 08:05:55;;;;;;;7.83;6.77;;;;;;;19.99;30.92;94038.38;6159596;28;110163;-55
2024/01/18 08:08:58;;;;;;;7.07;6.37;;;;;;;19.98;30.97;94028.84;6159432;28;110279;-56
2024/01/18 08:12:01;;;;;;;6.87;6.17;;;;;;;19.95;31.06;94034.03;6148392;28;110254;-55
2024/01/18 08:15:05;;;;;;;7.20;6.50;;;;;;;19.96;30.99;94032.91;6158800;28;110094;-55
2024/01/18 08:18:10;;;;;;;6.83;6.23;;;;;;;19.95;30.97;94031.38;6159520;28;110263;-55
2024/01/18 08:21:13;;;;;;;7.70;6.90;;;;;;;19.92;30.98;94019.50;6152612;28;109104;-56
2024/01/18 08:24:16;;;;;;;7.27;6.67;;;;;;;19.90;30.91;94011.06;6155015;28;109410;-56
2024/01/18 08:27:19;;;;;;;8.97;8.03;;;;;;;19.86;30.85;94015.47;6159183;28;110210;-56
2024/01/18 08:30:22;;;;;;;9.13;8.33;;;;;;;19.86;30.83;94015.47;6158199;28;110250;-56
2024/01/18 08:33:26;;;;;;;9.33;8.53;;;;;;;19.85;31.09;94015.78;6148147;28;109131;-56
2024/01/18 08:36:29;;;;;;;9.97;8.97;;;;;;;19.83;30.90;94016.09;6158818;28;108865;-55
2024/01/18 08:39:33;;;;;;;12.93;10.93;;;;;;;19.81;30.96;94018.28;6159433;28;110053;-55
2024/01/18 08:42:36;;;;;;;10.53;9.63;;;;;;;19.81;31.01;94012.19;6158338;28;110065;-54
2024/01/18 08:45:41;;;;;;;9.50;8.60;;;;;;;19.80;30.90;94015.94;6148228;28;109051;-54
2024/01/18 08:48:46;;;;;;;10.07;9.17;;;;;;;19.78;30.91;94023.44;6159026;28;110108;-55
2024/01/18 08:51:49;;;;;;;9.30;8.40;;;;;;;19.77;30.82;94024.53;6158044;28;110300;-56
2024/01/18 08:54:52;;;;;;;8.80;8.00;;;;;;;19.75;30.93;94030.16;6153943;28;109106;-55
2024/01/18 08:57:55;;;;;;;8.90;8.10;;;;;;;19.75;30.87;94010.81;6152738;28;110986;-55
2024/01/18 09:00:58;;;;;;;9.43;8.07;;;;;;;19.73;30.99;94005.81;6157358;28;110029;-55
2024/01/18 09:04:03;;;;;;;8.60;7.90;;;;;;;19.70;30.86;94023.16;6157775;28;109440;-56
2024/01/18 09:07:07;;;;;;;9.43;8.43;;;;;;;19.71;30.83;94010.66;6149432;28;110969;-56
2024/01/18 09:10:11;;;;;;;8.53;7.73;;;;;;;19.71;30.91;94022.06;6158105;28;108817;-55
2024/01/18 09:13:14;;;;;;;8.90;8.20;;;;;;;19.69;30.89;93989.75;6158352;28;110332;-56
2024/01/18 09:16:22;;;;;;;9.17;8.13;;;;;;;19.59;30.94;94003.34;6157688;28;110377;-55
2024/01/18 09:19:26;;;;;;;9.37;8.50;;;;;;;19.67;30.91;93991.94;6148538;28;109905;-55
2024/01/18 09:22:29;;;;;;;9.10;8.20;;;;;;;19.63;31.27;94001.59;6157697;28;109199;-52
2024/01/18 09:25:32;;;;;;;8.60;7.70;;;;;;;19.66;31.01;94016.13;6158273;28;109528;-52
2024/01/18 09:28:35;;;;;;;8.67;7.83;;;;;;;19.71;31.01;93987.56;6158202;28;108984;-53
2024/01/18 09:31:38;;;;;;;9.00;8.10;;;;;;;19.79;30.93;93995.78;6145943;28;109224;-53
2024/01/18 09:34:46;;;;;;;8.90;8.10;;;;;;;19.77;30.85;94003.31;6158251;28;110217;-53
2024/01/18 09:37:49;;;;;;;8.90;8.10;;;;;;;19.78;30.89;93960.50;6157663;28;109432;-51
2024/01/18 09:40:56;;;;;;;8.17;7.43;;;;;;;19.78;30.82;93971.13;6149394;28;109245;-50
2024/01/18 09:44:04;;;;;;;8.00;7.20;;;;;;;19.76;30.91;93968.00;6157603;28;109464;-53
2024/01/18 09:47:08;;;;;;;8.93;8.07;;;;;;;19.76;30.90;93938.03;6157427;28;110074;-52
2024/01/18 09:50:12;;;;;;;8.37;7.47;;;;;;;19.77;31.10;93936.94;6157375;28;110164;-51
2024/01/18 09:53:16;;;;;;;9.00;8.10;;;;;;;19.80;30.86;93923.81;6146302;28;109059;-51
2024/01/18 09:56:22;;;;;;;9.20;8.30;;;;;;;19.62;31.07;93891.25;6156736;28;109109;-52
2024/01/18 09:59:28;;;;;;;8.67;7.80;;;;;;;19.83;31.01;93919.75;6157124;28;108931;-51
2024/01/18 10:02:31;;;;;;;8.40;7.60;;;;;;;19.80;30.92;93899.91;6156758;28;109660;-52
2024/01/18 10:05:36;;;;;;;8.60;7.67;;;;;;;19.86;30.87;93900.53;6146211;28;109155;-51
2024/01/18 10:08:39;;;;;;;8.70;7.80;;;;;;;19.92;30.65;93904.56;6157547;28;109346;-52
2024/01/18 10:11:44;;;;;;;8.20;7.40;;;;;;;19.97;30.75;93888.44;6156337;28;110483;-52
2024/01/18 10:14:47;;;;;;;8.17;7.37;;;;;;;20.05;30.63;93877.00;6154989;28;108908;-52
2024/01/18 10:17:51;;;;;;;8.13;7.33;;;;;;;20.11;30.73;93857.13;6154847;28;109200;-52
2024/01/18 10:20:59;;;;;;;7.40;6.70;;;;;;;20.16;30.37;93843.66;6160305;28;109266;-52
2024/01/18 10:24:03;;;;;;;8.70;7.90;;;;;;;20.18;30.23;93846.78;6161219;28;109223;-52
2024/01/18 10:27:06;;;;;;;7.73;7.03;;;;;;;20.21;30.39;93819.59;6150099;28;109292;-51
2024/01/18 10:30:12;;;;;;;7.40;6.75;;;;;;;20.21;30.35;93818.81;6160280;28;110060;-51
2024/01/18 10:33:17;;;;;;;8.03;7.23;;;;;;;20.19;30.44;93821.00;6160482;28;108793;-51
2024/01/18 10:36:21;;;;;;;7.63;6.93;;;;;;;20.22;30.34;93833.63;6160444;28;109315;-52
2024/01/18 10:39:24;;;;;;;7.20;6.50;;;;;;;20.25;30.36;93820.50;6150583;28;110119;-52
2024/01/18 10:42:27;;;;;;;8.07;7.37;;;;;;;20.24;30.36;93823.47;6160322;28;110274;-52
2024/01/18 10:45:32;;;;;;;7.27;6.67;;;;;;;20.24;30.14;93791.59;6161135;28;110156;-52
2024/01/18 10:48:36;;;;;;;7.33;6.70;;;;;;;20.22;30.08;93775.97;6155605;28;109105;-52
2024/01/18 10:51:41;;;;;;;7.30;6.60;;;;;;;20.23;30.55;93793.47;6154575;28;110083;-52
2024/01/18 10:54:46;;;;;;;7.40;6.00;;;;;;;20.21;30.59;93787.72;6160729;28;109363;-50
2024/01/18 10:57:59;;;;;;;7.50;6.67;;;;;;;20.20;30.30;93775.53;6160671;28;109644;-50
2024/01/18 11:01:03;;;;;;;7.17;6.53;;;;;;;20.17;30.29;93778.84;6148988;28;109382;-50
2024/01/18 11:04:08;;;;;;;7.23;6.53;;;;;;;20.18;30.46;93780.41;6160761;28;110060;-50
2024/01/18 11:07:16;;;;;;;6.57;5.97;;;;;;;20.18;30.44;93771.66;6160569;28;110159;-49
2024/01/18 11:10:20;;;;;;;7.33;6.57;;;;;;;20.06;30.41;93756.41;6160121;28;110182;-50
2024/01/18 11:13:23;;;;;;;6.50;5.90;;;;;;;20.21;30.28;93769.13;6150053;28;110120;-50
2024/01/18 11:16:27;;;;;;;6.70;6.10;;;;;;;20.20;30.14;93733.03;6159721;28;110172;-50
2024/01/18 11:19:50;;;;;;;6.57;5.97;;;;;;;20.22;30.24;93724.75;6160221;28;110996;-50
2024/01/18 11:22:58;;;;;;;7.20;6.50;;;;;;;20.25;30.23;93730.19;6149535;28;108813;-50
2024/01/18 11:26:04;;;;;;;6.23;5.63;;;;;;;20.29;30.09;93707.19;6154241;28;110182;-50
2024/01/18 11:29:17;;;;;;;6.67;6.17;;;;;;;20.31;30.04;93734.19;6160380;28;110088;-50
2024/01/18 11:32:22;;;;;;;6.90;6.30;;;;;;;20.31;30.15;93733.44;6159420;28;109087;-50
2024/01/18 11:35:25;;;;;;;6.33;5.73;;;;;;;20.36;30.13;93735.13;6149120;28;110145;-50
2024/01/18 11:38:32;;;;;;;6.60;6.00;;;;;;;20.37;30.37;93747.31;6159746;28;109071;-50
2024/01/18 11:41:37;;;;;;;6.37;5.77;;;;;;;20.37;30.00;93750.75;6159356;28;110073;-50
2024/01/18 11:44:49;;;;;;;6.50;5.80;;;;;;;20.38;30.28;93751.50;6159811;28;110260;-50
2024/01/18 11:47:52;;;;;;;6.03;5.53;;;;;;;20.37;29.99;93737.47;6148052;28;109303;-50
2024/01/18 11:50:56;;;;;;;6.40;5.80;;;;;;;20.39;30.23;93750.41;6158707;28;110152;-50
2024/01/18 11:54:02;;;;;;;6.20;5.60;;;;;;;20.35;30.16;93752.16;6160136;28;110194;-51
2024/01/18 11:57:13;;;;;;;5.40;4.90;;;;;;;20.37;30.07;93758.72;6153801;28;110081;-51
2024/01/18 12:00:16;;;;;;;5.43;4.93;;;;;;;20.37;30.23;93752.63;6156467;28;111785;-50
2024/01/18 12:03:19;;;;;;;6.00;5.30;;;;;;;20.34;30.36;93763.91;6159458;28;109105;-50
2024/01/18 12:06:26;;;;;;;6.30;5.70;;;;;;;20.31;30.28;93760.75;6158969;28;110047;-50
2024/01/18 12:09:31;;;;;;;5.37;4.87;;;;;;;20.28;30.18;93750.03;6148490;28;109054;-50
2024/01/18 12:12:35;;;;;;;5.43;4.93;;;;;;;20.12;30.42;93747.16;6158539;28;110172;-50
2024/01/18 12:15:40;;;;;;;5.83;5.33;;;;;;;20.24;30.48;93765.84;6158412;28;109246;-50
2024/01/18 12:18:44;;;;;;;5.70;5.20;;;;;;;20.23;30.36;93764.25;6159099;28;110108;-50
2024/01/18 12:21:47;;;;;;;6.53;5.83;;;;;;;20.20;30.48;93772.88;6146945;28;110189;-50
2024/01/18 12:24:52;;;;;;;5.47;4.93;;;;;;;20.19;30.38;93763.34;6158954;28;109253;-51
2024/01/18 12:27:56;;;;;;;5.30;4.80;;;;;;;20.18;30.36;93753.06;6159100;28;109072;-50
2024/01/18 12:31:01;;;;;;;6.10;5.50;;;;;;;20.17;30.35;93735.56;6153372;28;110106;-51
2024/01/18 12:34:04;;;;;;;5.60;5.10;;;;;;;20.15;30.27;93741.19;6153061;28;109287;-51
2024/01/18 12:37:08;;;;;;;5.87;5.37;;;;;;;20.12;30.43;93751.69;6158495;28;109266;-51
2024/01/18 12:40:12;;;;;;;6.27;5.67;;;;;;;20.10;30.13;93748.56;6158551;28;109091;-50
2024/01/18 12:43:16;;;;;;;5.43;4.93;;;;;;;20.07;30.38;93750.00;6147602;28;110247;-51
2024/01/18 12:46:19;;;;;;;5.60;5.10;;;;;;;20.07;30.43;93733.28;6158294;28;109207;-50
2024/01/18 12:49:24;;;;;;;5.40;4.90;;;;;;;20.04;30.32;93748.00;6158863;28;109443;-50
2024/01/18 12:52:32;;;;;;;5.50;5.00;;;;;;;20.05;30.51;93746.91;6157346;28;110086;-50
2024/01/18 12:55:36;;;;;;;5.13;4.73;;;;;;;20.03;30.24;93749.88;6148576;28;109883;-50
2024/01/18 12:58:41;;;;;;;5.67;5.17;;;;;;;20.02;30.41;93740.38;6157992;28;109152;-51
2024/01/18 13:01:49;;;;;;;4.90;4.50;;;;;;;20.01;30.59;93741.47;6157958;28;111316;-50
2024/01/18 13:04:52;;;;;;;5.63;5.13;;;;;;;19.99;30.36;93748.19;6153336;28;109234;-50
2024/01/18 13:07:56;;;;;;;5.80;5.23;;;;;;;19.97;30.56;93729.13;6152448;28;109187;-50
2024/01/18 13:11:01;;;;;;;5.47;4.90;;;;;;;19.96;30.43;93735.56;6157399;28;109122;-50
2024/01/18 13:14:06;;;;;;;5.63;5.00;;;;;;;19.96;30.51;93743.50;6158241;28;109129;-50
2024/01/18 13:17:09;;;;;;;5.40;4.90;;;;;;;19.94;30.56;93753.69;6146864;28;109127;-50
2024/01/18 13:20:12;;;;;;;5.20;4.70;;;;;;;19.92;30.69;93742.63;6157628;28;109325;-50
2024/01/18 13:23:15;;;;;;;5.30;4.73;;;;;;;19.91;30.53;93749.81;6157399;28;109092;-50
2024/01/18 13:26:20;;;;;;;5.13;4.67;;;;;;;19.92;30.48;93748.69;6157669;28;109150;-50
2024/01/18 13:29:23;;;;;;;5.40;4.90;;;;;;;19.86;30.59;93744.69;6147110;28;109267;-50
2024/01/18 13:32:26;;;;;;;5.33;4.83;;;;;;;19.86;30.50;93733.28;6156997;28;109167;-50
2024/01/18 13:35:29;;;;;;;5.00;4.50;;;;;;;19.87;30.51;93721.56;6157525;28;109246;-50
2024/01/18 13:38:33;;;;;;;5.30;4.80;;;;;;;19.84;30.54;93730.19;6157363;28;109173;-50
2024/01/18 13:41:38;;;;;;;5.40;4.90;;;;;;;19.63;30.61;93703.63;6146594;28;109490;-50
2024/01/18 13:44:41;;;;;;;4.53;4.13;;;;;;;19.83;30.64;93734.72;6157858;28;109134;-50
2024/01/18 13:47:44;;;;;;;5.00;4.60;;;;;;;19.79;30.52;93730.38;6157484;28;109165;-50
2024/01/18 13:50:47;;;;;;;4.53;4.03;;;;;;;19.80;30.82;93719.41;6156312;28;109238;-50
2024/01/18 13:53:51;;;;;;;5.20;4.77;;;;;;;19.71;30.60;93716.06;6157726;28;110053;-50
2024/01/18 13:56:55;;;;;;;4.80;4.30;;;;;;;19.69;30.74;93721.69;6162125;28;110239;-50
2024/01/18 13:59:58;;;;;;;5.47;4.97;;;;;;;19.78;30.74;93748.16;6162366;28;110111;-50
2024/01/18 14:03:01;;;;;;;5.03;4.53;;;;;;;19.78;30.53;93742.09;6151027;28;110164;-50
2024/01/18 14:06:05;;;;;;;4.97;4.47;;;;;;;19.76;30.85;93733.66;6161817;28;109131;-50
2024/01/18 14:09:08;;;;;;;4.60;4.17;;;;;;;19.76;30.65;93728.34;6161821;28;110087;-50
2024/01/18 14:12:13;;;;;;;4.33;3.93;;;;;;;19.64;30.57;93705.16;6160446;28;110046;-50
2024/01/18 14:15:16;;;;;;;4.80;4.40;;;;;;;19.72;30.65;93707.78;6151297;28;109634;-50